Time;durP1;ratioP1;P1;durP2;ratioP2;P2;SDS_P1;SDS_P2;PMS_P1;PMS_P2;Temp;Humidity;BMP_temperature;BMP_pressure;BME280_temperature;BME280_humidity;BME280_pressure;Samples;Min_cycle;Max_cycle;Signal;HPM_P1;HPM_P2
2020/12/12 00:01:31;;;;;;;;;;;22.90;81.80;;;;;;1834615;76;20249;-76
2020/12/12 00:04:01;;;;;;;;;;;23.00;81.30;;;;;;1836375;78;20174;-75
2020/12/12 00:06:30;;;;;;;;;;;23.10;81.40;;;;;;1833738;78;20182;-76
2020/12/12 00:09:00;;;;;;;;;;;23.10;81.90;;;;;;1837786;76;20154;-77
2020/12/12 00:11:30;;;;;;;;;;;23.20;82.10;;;;;;1837139;77;20198;-76
2020/12/12 00:14:00;;;;;;;;;;;23.20;81.70;;;;;;1883467;75;20164;-77
2020/12/12 00:16:30;;;;;;;;;;;23.20;82.10;;;;;;1882168;76;20195;-77
2020/12/12 00:19:00;;;;;;;;;;;23.30;81.40;;;;;;1883754;76;20160;-78
2020/12/12 00:21:30;;;;;;;;;;;23.30;80.50;;;;;;1838650;77;20214;-77
2020/12/12 00:24:00;;;;;;;;;;;23.30;80.40;;;;;;1842105;77;20213;-77
2020/12/12 00:26:29;;;;;;;;;;;23.40;80.40;;;;;;1883755;76;20278;-76
2020/12/12 00:28:59;;;;;;;;;;;23.40;80.60;;;;;;1883924;75;20479;-75
2020/12/12 00:31:29;;;;;;;;;;;23.40;81.10;;;;;;1884531;75;20252;-75
2020/12/12 00:33:59;;;;;;;;;;;23.50;81.00;;;;;;1888018;75;20530;-75
2020/12/12 00:36:29;;;;;;;;;;;23.50;80.60;;;;;;1883478;75;20187;-74
2020/12/12 00:38:59;;;;;;;;;;;23.50;81.80;;;;;;1884113;75;20234;-76
2020/12/12 00:41:30;;;;;;;;;;;23.50;80.80;;;;;;1881828;75;20233;-67
2020/12/12 00:44:01;;;;;;;;;;;23.60;80.50;;;;;;1882316;75;20515;-70
2020/12/12 00:46:50;;;;;;;;;;;23.60;81.00;;;;;;1880963;74;20224;-70
2020/12/12 00:49:21;;;;;;;;;;;23.60;79.70;;;;;;1716493;82;20444;-69
2020/12/12 00:51:51;;;;;;;;;;;23.60;80.20;;;;;;1776788;79;20183;-71
2020/12/12 00:54:24;;;;;;;;;;;23.60;81.00;;;;;;1777658;79;20187;-72
2020/12/12 00:56:54;;;;;;;;;;;23.70;81.80;;;;;;1778424;80;20591;-71
2020/12/12 00:59:24;;;;;;;;;;;23.70;81.80;;;;;;1761618;80;20171;-72
2020/12/12 01:02:20;;;;;;;;;;;23.70;81.00;;;;;;1780512;79;20168;-71
2020/12/12 01:04:37;;;;;;;;;;;23.80;81.20;;;;;;1776238;80;20252;-73
2020/12/12 01:07:07;;;;;;;;;;;23.80;81.10;;;;;;1777381;80;20170;-72
2020/12/12 01:09:37;;;;;;;;;;;23.90;80.10;;;;;;1779905;79;20179;-72
2020/12/12 01:12:07;;;;;;;;;;;23.90;79.90;;;;;;1778094;79;20190;-73
2020/12/12 01:14:36;;;;;;;;;;;24.00;80.20;;;;;;1781493;79;20182;-72
2020/12/12 01:17:06;;;;;;;;;;;24.00;80.50;;;;;;1767170;79;20203;-72
2020/12/12 01:19:55;;;;;;;;;;;24.10;81.90;;;;;;1778780;79;20247;-72
2020/12/12 01:22:26;;;;;;;;;;;24.10;81.90;;;;;;1811999;79;20255;-72
2020/12/12 01:24:55;;;;;;;;;;;24.20;81.30;;;;;;1812463;79;20211;-73
2020/12/12 01:27:26;;;;;;;;;;;24.20;81.00;;;;;;1803440;79;20203;-72
2020/12/12 01:29:57;;;;;;;;;;;24.30;81.10;;;;;;1785003;79;20140;-71
2020/12/12 01:32:27;;;;;;;;;;;24.30;80.90;;;;;;1809727;77;20487;-72
2020/12/12 01:34:57;;;;;;;;;;;24.40;80.90;;;;;;1813878;79;20156;-70
2020/12/12 01:37:27;;;;;;;;;;;24.40;79.90;;;;;;1789393;78;20222;-71
2020/12/12 01:39:57;;;;;;;;;;;24.40;80.10;;;;;;1806079;79;20141;-72
2020/12/12 01:42:27;;;;;;;;;;;24.50;80.20;;;;;;1812394;79;20180;-71
2020/12/12 01:44:57;;;;;;;;;;;24.50;80.30;;;;;;1788245;79;20184;-71
2020/12/12 01:47:27;;;;;;;;;;;24.50;80.90;;;;;;1749357;80;20186;-71
2020/12/12 01:49:58;;;;;;;;;;;24.60;81.40;;;;;;1810404;79;20164;-72
2020/12/12 01:52:28;;;;;;;;;;;24.60;81.40;;;;;;1792688;79;20227;-73
2020/12/12 01:54:58;;;;;;;;;;;24.60;79.60;;;;;;1815448;77;20458;-73
2020/12/12 01:57:27;;;;;;;;;;;24.60;80.60;;;;;;1814972;77;20187;-72
2020/12/12 01:59:57;;;;;;;;;;;24.70;80.10;;;;;;1810158;79;20388;-71
2020/12/12 02:02:27;;;;;;;;;;;24.80;79.80;;;;;;1816640;77;20134;-71
2020/12/12 02:04:58;;;;;;;;;;;24.80;79.10;;;;;;1807146;79;20443;-72
2020/12/12 02:07:29;;;;;;;;;;;24.80;79.60;;;;;;1787876;79;20251;-71
2020/12/12 02:10:00;;;;;;;;;;;24.90;80.00;;;;;;1810221;77;20178;-71
2020/12/12 02:12:30;;;;;;;;;;;24.90;78.90;;;;;;1808135;77;20242;-71
2020/12/12 02:15:00;;;;;;;;;;;25.00;79.60;;;;;;1805861;79;20202;-70
2020/12/12 02:17:31;;;;;;;;;;;25.00;80.00;;;;;;1815242;77;20481;-73
2020/12/12 02:20:01;;;;;;;;;;;25.10;79.30;;;;;;1813760;78;20190;-72
2020/12/12 02:22:37;;;;;;;;;;;25.10;79.60;;;;;;1834083;76;20197;-71
2020/12/12 02:25:04;;;;;;;;;;;25.20;79.30;;;;;;1836482;76;20208;-73
2020/12/12 02:27:34;;;;;;;;;;;25.20;79.00;;;;;;1843171;77;20181;-72
2020/12/12 02:30:05;;;;;;;;;;;25.20;78.40;;;;;;1845690;76;20205;-74
2020/12/12 02:32:49;;;;;;;;;;;25.30;78.70;;;;;;1841283;76;20161;-73
2020/12/12 02:35:20;;;;;;;;;;;25.30;78.30;;;;;;1839155;76;20168;-72
2020/12/12 02:37:50;;;;;;;;;;;25.30;78.70;;;;;;1837228;77;20213;-72
2020/12/12 02:40:21;;;;;;;;;;;25.40;78.10;;;;;;1811300;79;20184;-73
2020/12/12 02:42:50;;;;;;;;;;;25.40;78.10;;;;;;1787438;79;20177;-73
2020/12/12 02:45:20;;;;;;;;;;;25.50;78.40;;;;;;1776972;79;20183;-73
2020/12/12 02:47:51;;;;;;;;;;;25.50;78.20;;;;;;1776141;79;20239;-73
2020/12/12 02:50:27;;;;;;;;;;;25.50;78.00;;;;;;1769178;79;20143;-74
2020/12/12 02:52:52;;;;;;;;;;;25.60;78.10;;;;;;1779782;80;20505;-74
2020/12/12 02:55:22;;;;;;;;;;;25.60;77.90;;;;;;1790703;79;20206;-74
2020/12/12 02:57:52;;;;;;;;;;;25.60;77.90;;;;;;1777768;80;20214;-73
2020/12/12 03:00:23;;;;;;;;;;;25.60;77.60;;;;;;1810897;77;20164;-74
2020/12/12 03:02:54;;;;;;;;;;;25.70;77.30;;;;;;1803153;78;20487;-73
2020/12/12 03:05:25;;;;;;;;;;;25.70;78.00;;;;;;1775711;79;20243;-74
2020/12/12 03:07:55;;;;;;;;;;;25.70;78.40;;;;;;1787869;78;20211;-74
2020/12/12 03:10:24;;;;;;;;;;;25.80;78.60;;;;;;1788018;79;20535;-73
2020/12/12 03:12:54;;;;;;;;;;;25.80;78.30;;;;;;1778593;79;20295;-74
2020/12/12 03:15:25;;;;;;;;;;;25.90;77.80;;;;;;1792984;78;20234;-74
2020/12/12 03:17:54;;;;;;;;;;;26.00;77.50;;;;;;1788077;79;20201;-74
2020/12/12 03:20:24;;;;;;;;;;;26.00;77.60;;;;;;1785241;79;20160;-74
2020/12/12 03:22:54;;;;;;;;;;;26.20;77.40;;;;;;1780406;80;20549;-71
2020/12/12 03:25:27;;;;;;;;;;;26.20;76.90;;;;;;1777454;79;20266;-71
2020/12/12 03:27:58;;;;;;;;;;;26.30;76.50;;;;;;1771064;81;20235;-72
2020/12/12 03:30:28;;;;;;;;;;;26.40;76.60;;;;;;1746983;81;20203;-71
2020/12/12 03:32:58;;;;;;;;;;;26.40;76.70;;;;;;1763951;81;20543;-71
2020/12/12 03:35:28;;;;;;;;;;;26.50;76.50;;;;;;1758448;79;20452;-72
2020/12/12 03:37:58;;;;;;;;;;;26.60;76.10;;;;;;1773798;79;20215;-70
2020/12/12 03:40:29;;;;;;;;;;;26.70;75.60;;;;;;1785514;79;20222;-71
2020/12/12 03:42:59;;;;;;;;;;;26.80;75.30;;;;;;1834729;77;20508;-71
2020/12/12 03:45:29;;;;;;;;;;;26.90;73.60;;;;;;1840691;77;20488;-71
2020/12/12 03:47:59;;;;;;;;;;;27.00;73.60;;;;;;1838827;77;20481;-72
2020/12/12 03:50:29;;;;;;;;;;;27.10;73.70;;;;;;1836584;76;20253;-72
2020/12/12 03:52:59;;;;;;;;;;;27.20;74.10;;;;;;1773564;79;20279;-72
2020/12/12 03:55:29;;;;;;;;;;;27.20;74.00;;;;;;1795157;79;20266;-70
2020/12/12 03:57:58;;;;;;;;;;;27.30;73.70;;;;;;1836806;77;20291;-73
2020/12/12 04:00:37;;;;;;;;;;;27.40;73.00;;;;;;1840490;76;20172;-72
2020/12/12 04:03:04;;;;;;;;;;;27.50;72.50;;;;;;1793114;79;20206;-72
2020/12/12 04:05:44;;;;;;;;;;;27.60;70.70;;;;;;1837816;76;20189;-72
2020/12/12 04:08:15;;;;;;;;;;;27.80;70.50;;;;;;1829774;77;20233;-74
2020/12/12 04:10:47;;;;;;;;;;;27.90;69.80;;;;;;1839156;76;20177;-75
2020/12/12 04:13:17;;;;;;;;;;;28.00;69.50;;;;;;1837419;76;20623;-75
2020/12/12 04:15:47;;;;;;;;;;;28.10;68.60;;;;;;1847954;76;20218;-76
2020/12/12 04:18:16;;;;;;;;;;;28.20;69.60;;;;;;1840433;76;20592;-75
2020/12/12 04:20:46;;;;;;;;;;;28.30;69.20;;;;;;1845091;77;20209;-75
2020/12/12 04:23:16;;;;;;;;;;;28.50;67.20;;;;;;1835672;76;20245;-76
2020/12/12 04:25:46;;;;;;;;;;;28.60;66.70;;;;;;1852096;76;21072;-75
2020/12/12 04:28:19;;;;;;;;;;;28.80;67.10;;;;;;1847889;76;20155;-75
2020/12/12 04:31:10;;;;;;;;;;;28.90;66.10;;;;;;1836586;77;20263;-74
2020/12/12 04:33:44;;;;;;;;;;;28.90;66.00;;;;;;1803063;77;20204;-75
2020/12/12 04:36:15;;;;;;;;;;;28.90;65.70;;;;;;1839831;77;20154;-75
2020/12/12 04:38:46;;;;;;;;;;;29.00;65.70;;;;;;1845660;76;20671;-75
2020/12/12 04:41:18;;;;;;;;;;;29.00;67.00;;;;;;1837424;76;20218;-75
2020/12/12 04:43:55;;;;;;;;;;;29.10;67.10;;;;;;1860463;76;20144;-75
2020/12/12 04:46:55;;;;;;;;;;;;;;;;;;;;;
2020/12/12 04:49:33;;;;;;;;;;;29.20;67.70;;;;;;1867594;76;20218;-75
2020/12/12 04:52:04;;;;;;;;;;;29.30;67.00;;;;;;1868110;76;20281;-75
2020/12/12 04:54:35;;;;;;;;;;;29.40;63.30;;;;;;1865805;75;20160;-75
2020/12/12 04:57:07;;;;;;;;;;;29.40;63.30;;;;;;1863810;75;20188;-75
2020/12/12 04:59:46;;;;;;;;;;;29.50;64.90;;;;;;1859769;76;20164;-75
2020/12/12 05:02:26;;;;;;;;;;;29.60;62.40;;;;;;1862702;76;20439;-75
2020/12/12 05:04:59;;;;;;;;;;;29.60;63.80;;;;;;1862048;76;20366;-75
2020/12/12 05:07:31;;;;;;;;;;;29.70;64.10;;;;;;1866505;76;20475;-75
2020/12/12 05:10:20;;;;;;;;;;;29.70;62.10;;;;;;1845184;77;20204;-74
2020/12/12 05:12:56;;;;;;;;;;;29.80;60.80;;;;;;1820141;76;20160;-78
2020/12/12 05:15:26;;;;;;;;;;;29.80;60.80;;;;;;1842974;77;20172;-74
2020/12/12 05:17:57;;;;;;;;;;;29.90;60.00;;;;;;1863355;76;20209;-75
2020/12/12 05:20:26;;;;;;;;;;;29.80;60.00;;;;;;1866424;76;20199;-75
2020/12/12 05:22:56;;;;;;;;;;;29.70;60.00;;;;;;1858093;76;20461;-73
2020/12/12 05:25:27;;;;;;;;;;;29.80;60.40;;;;;;1857294;76;20206;-72
2020/12/12 05:27:57;;;;;;;;;;;29.80;60.10;;;;;;1865942;76;20164;-71
2020/12/12 05:30:27;;;;;;;;;;;29.90;59.90;;;;;;1861596;76;20209;-73
2020/12/12 05:32:57;;;;;;;;;;;29.90;61.00;;;;;;1861397;76;20236;-72
2020/12/12 05:35:26;;;;;;;;;;;30.00;61.10;;;;;;1859897;76;20229;-75
2020/12/12 05:38:00;;;;;;;;;;;30.10;62.70;;;;;;1868889;76;20234;-75
2020/12/12 05:40:29;;;;;;;;;;;30.10;61.90;;;;;;1862306;76;20528;-76
2020/12/12 05:43:01;;;;;;;;;;;30.20;61.20;;;;;;1843582;76;20201;-75
2020/12/12 05:45:35;;;;;;;;;;;30.20;62.10;;;;;;1841316;77;20469;-75
2020/12/12 05:48:06;;;;;;;;;;;30.30;61.30;;;;;;1848711;76;20205;-76
2020/12/12 05:50:36;;;;;;;;;;;30.20;61.80;;;;;;1863732;76;20215;-75
2020/12/12 05:53:07;;;;;;;;;;;30.10;61.40;;;;;;1854770;76;20162;-75
2020/12/12 05:55:36;;;;;;;;;;;30.10;60.70;;;;;;1862488;76;20214;-75
2020/12/12 05:58:07;;;;;;;;;;;30.10;60.30;;;;;;1862581;76;20142;-74
2020/12/12 06:00:36;;;;;;;;;;;30.10;59.00;;;;;;1849032;76;20200;-76
2020/12/12 06:03:09;;;;;;;;;;;30.10;58.90;;;;;;1838833;77;20198;-76
2020/12/12 06:05:40;;;;;;;;;;;30.10;60.40;;;;;;1861017;76;20261;-75
2020/12/12 06:08:11;;;;;;;;;;;30.20;61.00;;;;;;1845963;76;20753;-75
2020/12/12 06:10:41;;;;;;;;;;;30.20;61.30;;;;;;1869090;76;20217;-75
2020/12/12 06:13:12;;;;;;;;;;;30.30;61.30;;;;;;1862445;76;20206;-76
2020/12/12 06:15:42;;;;;;;;;;;30.40;57.40;;;;;;1842754;76;20214;-74
2020/12/12 06:18:14;;;;;;;;;;;30.40;57.20;;;;;;1838280;77;20967;-75
2020/12/12 06:20:45;;;;;;;;;;;30.50;56.70;;;;;;1863171;76;20256;-75
2020/12/12 06:23:15;;;;;;;;;;;30.50;56.70;;;;;;1854006;76;20163;-75
2020/12/12 06:25:45;;;;;;;;;;;30.60;58.90;;;;;;1865314;76;20501;-75
2020/12/12 06:28:16;;;;;;;;;;;30.70;57.60;;;;;;1812542;78;20695;-75
2020/12/12 06:30:46;;;;;;;;;;;30.80;56.20;;;;;;1813705;78;20247;-75
2020/12/12 06:33:16;;;;;;;;;;;30.90;57.20;;;;;;1808673;78;20188;-75
2020/12/12 06:35:46;;;;;;;;;;;31.00;57.80;;;;;;1851546;76;20162;-75
2020/12/12 06:38:17;;;;;;;;;;;30.90;58.70;;;;;;1846198;77;20182;-75
2020/12/12 06:40:47;;;;;;;;;;;30.80;55.90;;;;;;1847527;77;20692;-75
2020/12/12 06:43:18;;;;;;;;;;;30.80;56.00;;;;;;1844710;77;20547;-74
2020/12/12 06:45:48;;;;;;;;;;;30.60;57.60;;;;;;1841334;77;20234;-74
2020/12/12 06:48:20;;;;;;;;;;;30.50;58.30;;;;;;1842853;77;20406;-74
2020/12/12 06:50:51;;;;;;;;;;;30.40;57.40;;;;;;1849655;77;20515;-75
2020/12/12 06:53:40;;;;;;;;;;;30.50;58.70;;;;;;1814545;78;20246;-75
2020/12/12 06:56:12;;;;;;;;;;;30.40;58.30;;;;;;1906691;73;20189;-73
2020/12/12 06:58:44;;;;;;;;;;;30.40;56.90;;;;;;1893773;75;20540;-75
2020/12/12 07:01:16;;;;;;;;;;;30.50;58.20;;;;;;1903065;74;20236;-74
2020/12/12 07:03:47;;;;;;;;;;;30.50;58.00;;;;;;1890785;75;20456;-72
2020/12/12 07:06:18;;;;;;;;;;;30.50;57.60;;;;;;1914687;73;20685;-72
2020/12/12 07:08:48;;;;;;;;;;;30.60;57.50;;;;;;1904274;73;20447;-73
2020/12/12 07:11:19;;;;;;;;;;;30.60;58.40;;;;;;1923441;73;20291;-73
2020/12/12 07:13:50;;;;;;;;;;;30.60;57.60;;;;;;1901798;75;20213;-73
2020/12/12 07:16:21;;;;;;;;;;;30.60;57.90;;;;;;1916934;74;20170;-73
2020/12/12 07:18:51;;;;;;;;;;;30.60;55.80;;;;;;1914889;73;20197;-73
2020/12/12 07:21:23;;;;;;;;;;;30.60;56.30;;;;;;1907661;73;20491;-73
2020/12/12 07:23:55;;;;;;;;;;;30.60;55.90;;;;;;1916639;73;20193;-73
2020/12/12 07:26:24;;;;;;;;;;;30.50;57.50;;;;;;1921810;73;20161;-72
2020/12/12 07:28:56;;;;;;;;;;;30.50;57.90;;;;;;1874151;75;20426;-72
2020/12/12 07:31:26;;;;;;;;;;;30.40;58.80;;;;;;1908530;73;20268;-73
2020/12/12 07:33:56;;;;;;;;;;;30.40;58.50;;;;;;1912374;73;20236;-72
2020/12/12 07:36:26;;;;;;;;;;;30.40;59.00;;;;;;1907434;73;20231;-73
2020/12/12 07:38:56;;;;;;;;;;;30.40;58.90;;;;;;1910556;74;20226;-73
2020/12/12 07:41:36;;;;;;;;;;;30.40;58.70;;;;;;1912370;73;20201;-74
2020/12/12 07:44:16;;;;;;;;;;;30.40;58.50;;;;;;1901389;74;20472;-73
2020/12/12 07:46:57;;;;;;;;;;;30.30;58.30;;;;;;1898637;73;20234;-74
2020/12/12 07:49:30;;;;;;;;;;;30.30;56.70;;;;;;1844700;76;20461;-74
2020/12/12 07:52:01;;;;;;;;;;;30.40;57.80;;;;;;1899110;73;20767;-74
2020/12/12 07:54:32;;;;;;;;;;;30.40;56.80;;;;;;1903920;73;20207;-76
2020/12/12 07:57:03;;;;;;;;;;;30.50;56.50;;;;;;1904927;75;20217;-72
2020/12/12 07:59:33;;;;;;;;;;;30.60;57.50;;;;;;1899542;73;20160;-72
2020/12/12 08:02:14;;;;;;;;;;;30.60;57.50;;;;;;1909524;73;20173;-74
2020/12/12 08:04:39;;;;;;;;;;;30.60;58.10;;;;;;1909325;74;20177;-72
2020/12/12 08:07:13;;;;;;;;;;;30.50;58.00;;;;;;1902580;74;20607;-72
2020/12/12 08:09:44;;;;;;;;;;;30.50;58.40;;;;;;1900622;73;20232;-72
2020/12/12 08:12:30;;;;;;;;;;;30.40;57.90;;;;;;1897371;73;20199;-70
2020/12/12 08:15:00;;;;;;;;;;;30.40;56.70;;;;;;1898156;73;20211;-72
2020/12/12 08:17:33;;;;;;;;;;;30.30;56.90;;;;;;1894652;73;20193;-72
2020/12/12 08:20:06;;;;;;;;;;;30.30;57.70;;;;;;1901855;73;20466;-72
2020/12/12 08:22:39;;;;;;;;;;;30.20;59.00;;;;;;1899613;73;20282;-72
2020/12/12 08:25:09;;;;;;;;;;;30.20;58.00;;;;;;1915988;73;20462;-71
2020/12/12 08:27:40;;;;;;;;;;;30.20;57.70;;;;;;1896542;73;20179;-72
2020/12/12 08:30:10;;;;;;;;;;;30.20;58.30;;;;;;1907578;73;20138;-72
2020/12/12 08:32:49;;;;;;;;;;;30.20;58.50;;;;;;1896635;73;20261;-73
2020/12/12 08:35:18;;;;;;;;;;;30.20;58.50;;;;;;1899918;73;20265;-73
2020/12/12 08:37:48;;;;;;;;;;;30.30;57.30;;;;;;1902540;73;20465;-73
2020/12/12 08:40:19;;;;;;;;;;;30.40;57.10;;;;;;1902886;73;20258;-73
2020/12/12 08:43:08;;;;;;;;;;;30.40;56.90;;;;;;1908800;73;20499;-73
2020/12/12 08:45:39;;;;;;;;;;;30.40;56.80;;;;;;1847663;77;20506;-73
2020/12/12 08:48:18;;;;;;;;;;;30.40;57.00;;;;;;1851685;77;20182;-73
2020/12/12 08:50:49;;;;;;;;;;;30.40;57.20;;;;;;1869499;76;20137;-73
2020/12/12 08:53:20;;;;;;;;;;;30.40;57.40;;;;;;1863954;76;20290;-72
2020/12/12 08:55:52;;;;;;;;;;;30.40;57.20;;;;;;1858059;76;20221;-80
2020/12/12 08:58:23;;;;;;;;;;;30.30;56.80;;;;;;1858706;76;20274;-81
2020/12/12 09:01:15;;;;;;;;;;;30.30;57.20;;;;;;1857628;76;20537;-81
2020/12/12 09:03:46;;;;;;;;;;;30.30;56.90;;;;;;1863288;76;20246;-80
2020/12/12 09:06:16;;;;;;;;;;;30.30;57.20;;;;;;1871162;76;20232;-80
2020/12/12 09:08:46;;;;;;;;;;;30.20;57.70;;;;;;1861733;75;20593;-81
2020/12/12 09:11:18;;;;;;;;;;;30.20;57.30;;;;;;1857738;76;20244;-81
2020/12/12 09:13:49;;;;;;;;;;;30.10;57.40;;;;;;1869181;74;20520;-80
2020/12/12 09:16:22;;;;;;;;;;;30.10;57.40;;;;;;1860228;76;20544;-81
2020/12/12 09:18:52;;;;;;;;;;;30.10;57.40;;;;;;1866952;76;20571;-81
2020/12/12 09:21:22;;;;;;;;;;;30.20;57.40;;;;;;1870415;76;20276;-81
2020/12/12 09:23:52;;;;;;;;;;;30.20;57.50;;;;;;1867449;76;20525;-80
2020/12/12 09:26:25;;;;;;;;;;;30.20;57.30;;;;;;1859370;76;20242;-81
2020/12/12 09:28:56;;;;;;;;;;;30.20;57.30;;;;;;1870837;75;20177;-80
2020/12/12 09:31:28;;;;;;;;;;;30.10;56.90;;;;;;1870743;75;20213;-82
2020/12/12 09:34:14;;;;;;;;;;;30.10;57.10;;;;;;1857643;75;20217;-81
2020/12/12 09:36:44;;;;;;;;;;;30.10;57.40;;;;;;1857084;75;20185;-79
2020/12/12 09:39:14;;;;;;;;;;;30.00;57.30;;;;;;1863354;76;20221;-80
2020/12/12 09:41:43;;;;;;;;;;;30.00;57.30;;;;;;1865472;76;20228;-82
2020/12/12 09:44:13;;;;;;;;;;;30.00;57.40;;;;;;1865835;75;20251;-81
2020/12/12 09:46:45;;;;;;;;;;;29.90;57.50;;;;;;1869869;74;20178;-80
2020/12/12 09:49:15;;;;;;;;;;;29.90;57.70;;;;;;1863290;76;20474;-80
2020/12/12 09:51:45;;;;;;;;;;;29.80;57.90;;;;;;1869862;76;20223;-80
2020/12/12 09:54:16;;;;;;;;;;;29.80;58.00;;;;;;1833708;78;20228;-80
2020/12/12 09:56:47;;;;;;;;;;;29.80;58.30;;;;;;1835058;78;20205;-81
2020/12/12 09:59:17;;;;;;;;;;;29.80;58.50;;;;;;1818949;78;20173;-80
2020/12/12 10:01:48;;;;;;;;;;;29.70;58.60;;;;;;1857409;76;20432;-80
2020/12/12 10:04:18;;;;;;;;;;;29.70;58.00;;;;;;1849753;77;20178;-81
2020/12/12 10:06:48;;;;;;;;;;;29.70;57.90;;;;;;1842806;77;20208;-80
2020/12/12 10:09:17;;;;;;;;;;;29.70;58.10;;;;;;1864590;77;20194;-79
2020/12/12 10:11:48;;;;;;;;;;;29.70;58.30;;;;;;1856064;77;20194;-82
2020/12/12 10:14:26;;;;;;;;;;;29.60;58.30;;;;;;1862929;77;20195;-81
2020/12/12 10:17:22;;;;;;;;;;;29.60;59.10;;;;;;1872876;77;20197;-81
2020/12/12 10:19:51;;;;;;;;;;;29.60;58.40;;;;;;1842520;77;20546;-81
2020/12/12 10:22:21;;;;;;;;;;;29.50;58.50;;;;;;1843259;77;20495;-79
2020/12/12 10:24:51;;;;;;;;;;;29.40;58.00;;;;;;1851029;77;20184;-80
2020/12/12 10:27:22;;;;;;;;;;;29.40;58.20;;;;;;1854754;77;20263;-79
2020/12/12 10:29:52;;;;;;;;;;;29.40;58.50;;;;;;1863099;77;20242;-79
2020/12/12 10:32:22;;;;;;;;;;;29.30;58.90;;;;;;1871789;75;20169;-79
2020/12/12 10:34:52;;;;;;;;;;;29.30;59.50;;;;;;1852564;75;20512;-79
2020/12/12 10:40:31;;;;;;;;;;;29.20;59.50;;;;;;1773346;79;20215;-79
2020/12/12 10:42:49;;;;;;;;;;;29.20;59.70;;;;;;1785600;78;20343;-79
2020/12/12 10:45:19;;;;;;;;;;;29.20;59.80;;;;;;1795460;78;20253;-79
2020/12/12 10:47:49;;;;;;;;;;;29.10;59.80;;;;;;1795548;79;20507;-79
2020/12/12 10:50:19;;;;;;;;;;;29.10;59.90;;;;;;1792354;79;20233;-79
2020/12/12 10:52:50;;;;;;;;;;;29.10;60.10;;;;;;1793493;79;20323;-80
2020/12/12 10:55:21;;;;;;;;;;;29.00;60.10;;;;;;1801126;79;20390;-80
2020/12/12 10:57:50;;;;;;;;;;;29.00;60.20;;;;;;1794584;79;20307;-79
2020/12/12 11:00:25;;;;;;;;;;;29.00;60.20;;;;;;1795457;78;20317;-81
2020/12/12 11:02:53;;;;;;;;;;;28.90;60.30;;;;;;1796359;78;20261;-80
2020/12/12 11:05:26;;;;;;;;;;;28.90;60.50;;;;;;1796589;78;20381;-80
2020/12/12 11:07:55;;;;;;;;;;;28.90;60.60;;;;;;1791000;78;20583;-80
2020/12/12 11:10:30;;;;;;;;;;;28.80;60.70;;;;;;1791715;78;20334;-79
2020/12/12 11:13:01;;;;;;;;;;;28.80;61.00;;;;;;1783820;78;20225;-79
2020/12/12 11:15:38;;;;;;;;;;;28.70;61.00;;;;;;1791541;78;20185;-80
2020/12/12 11:18:06;;;;;;;;;;;28.70;61.00;;;;;;1848711;74;20572;-80
2020/12/12 11:20:36;;;;;;;;;;;28.70;61.20;;;;;;1877570;74;20225;-79
2020/12/12 11:23:06;;;;;;;;;;;28.70;61.30;;;;;;1871836;75;20270;-78
2020/12/12 11:25:39;;;;;;;;;;;28.60;61.30;;;;;;1877145;74;20263;-79
2020/12/12 11:28:11;;;;;;;;;;;28.60;61.40;;;;;;1868796;74;20210;-78
2020/12/12 11:30:40;;;;;;;;;;;28.60;61.40;;;;;;1869595;74;20553;-79
2020/12/12 11:33:12;;;;;;;;;;;28.50;61.50;;;;;;1860248;75;20179;-78
2020/12/12 11:35:53;;;;;;;;;;;28.60;61.60;;;;;;1873055;74;20825;-80
2020/12/12 11:46:13;;;;;;;;;;;28.50;63.20;;;;;;1859417;76;20207;-80
2020/12/12 11:48:25;;;;;;;;;;;28.40;63.40;;;;;;1842886;76;20235;-80
2020/12/12 11:51:05;;;;;;;;;;;28.30;63.30;;;;;;1853524;77;20132;-81
2020/12/12 11:53:41;;;;;;;;;;;28.30;63.30;;;;;;1848989;77;20223;-80
2020/12/12 11:56:17;;;;;;;;;;;28.30;63.10;;;;;;1855435;76;20236;-80
2020/12/12 11:58:48;;;;;;;;;;;28.20;63.00;;;;;;1798511;79;20235;-80
2020/12/12 12:01:24;;;;;;;;;;;28.20;63.30;;;;;;1794146;78;20267;-80
2020/12/12 12:03:57;;;;;;;;;;;28.20;63.40;;;;;;1790990;78;20180;-80
2020/12/12 12:06:27;;;;;;;;;;;28.20;63.50;;;;;;1792469;78;20243;-80
2020/12/12 12:11:31;;;;;;;;;;;28.10;63.60;;;;;;1799984;78;20285;-79
2020/12/12 12:14:07;;;;;;;;;;;28.10;63.60;;;;;;1790944;78;20289;-80
2020/12/12 12:16:38;;;;;;;;;;;28.10;63.70;;;;;;1800889;77;20278;-79
2020/12/12 12:19:07;;;;;;;;;;;28.10;63.70;;;;;;1804730;78;20259;-81
2020/12/12 12:21:37;;;;;;;;;;;28.10;63.30;;;;;;1801325;77;20496;-79
2020/12/12 12:24:08;;;;;;;;;;;28.10;63.10;;;;;;1796366;79;20309;-80
2020/12/12 12:26:41;;;;;;;;;;;28.00;63.00;;;;;;1797017;79;20212;-80
2020/12/12 12:29:13;;;;;;;;;;;28.10;63.00;;;;;;1803530;77;20298;-80
2020/12/12 12:31:44;;;;;;;;;;;28.10;63.00;;;;;;1857790;75;20225;-79
2020/12/12 12:34:16;;;;;;;;;;;28.10;63.00;;;;;;1859600;75;20210;-80
2020/12/12 12:36:46;;;;;;;;;;;28.00;63.00;;;;;;1859754;75;20559;-81
2020/12/12 12:39:19;;;;;;;;;;;28.00;63.00;;;;;;1850954;75;20241;-82
2020/12/12 12:41:51;;;;;;;;;;;28.00;63.00;;;;;;1866399;75;20185;-81
2020/12/12 12:44:25;;;;;;;;;;;28.00;63.00;;;;;;1855127;75;20492;-81
2020/12/12 12:46:55;;;;;;;;;;;28.00;63.00;;;;;;1870628;74;20205;-81
2020/12/12 12:49:26;;;;;;;;;;;28.00;63.20;;;;;;1854725;75;20373;-80
2020/12/12 12:52:04;;;;;;;;;;;28.00;63.00;;;;;;1849659;75;20294;-80
2020/12/12 12:54:51;;;;;;;;;;;28.00;63.00;;;;;;1754055;80;20363;-81
2020/12/12 12:57:21;;;;;;;;;;;28.00;63.20;;;;;;1750934;80;20312;-80
2020/12/12 12:59:54;;;;;;;;;;;28.00;63.20;;;;;;1751415;80;20247;-80
2020/12/12 13:02:32;;;;;;;;;;;27.90;63.20;;;;;;1747936;80;20252;-81
2020/12/12 13:05:05;;;;;;;;;;;28.00;63.40;;;;;;1725988;81;20253;-80
2020/12/12 13:07:35;;;;;;;;;;;28.00;63.30;;;;;;1715830;82;20283;-79
2020/12/12 13:10:05;;;;;;;;;;;27.90;63.40;;;;;;1750205;80;20445;-80
2020/12/12 13:12:36;;;;;;;;;;;27.90;63.50;;;;;;1746922;80;20530;-80
2020/12/12 13:15:13;;;;;;;;;;;27.90;63.40;;;;;;1744977;80;20358;-81
2020/12/12 13:17:46;;;;;;;;;;;27.90;63.60;;;;;;1741835;80;20261;-81
2020/12/12 13:21:02;;;;;;;;;;;;;;;;;;;;;
2020/12/12 13:23:33;;;;;;;;;;;27.80;63.50;;;;;;1756014;80;20272;-80
2020/12/12 13:26:07;;;;;;;;;;;27.90;63.80;;;;;;1753477;80;20223;-80
2020/12/12 13:31:24;;;;;;;;;;;27.80;63.80;;;;;;1755387;77;20214;-80
2020/12/12 13:34:05;;;;;;;;;;;27.80;63.80;;;;;;1840184;75;20113;-79
2020/12/12 13:36:37;;;;;;;;;;;27.80;63.90;;;;;;1854162;75;20546;-80
2020/12/12 13:39:09;;;;;;;;;;;27.80;63.90;;;;;;1854544;75;20217;-79
2020/12/12 13:42:04;;;;;;;;;;;27.80;64.20;;;;;;1858984;75;20230;-80
2020/12/12 13:44:32;;;;;;;;;;;27.80;64.30;;;;;;1852946;75;20224;-80
2020/12/12 13:47:03;;;;;;;;;;;27.70;64.40;;;;;;1847895;75;20262;-81
2020/12/12 13:49:33;;;;;;;;;;;27.70;64.50;;;;;;1846165;75;20196;-80
2020/12/12 13:52:04;;;;;;;;;;;27.70;64.60;;;;;;1851839;77;20238;-81
2020/12/12 13:54:59;;;;;;;;;;;27.70;64.80;;;;;;1865131;76;20276;-80
2020/12/12 13:57:27;;;;;;;;;;;27.70;64.70;;;;;;1861492;76;20203;-79
2020/12/12 14:00:36;;;;;;;;;;;27.70;64.70;;;;;;1863966;75;20365;-79
2020/12/12 14:02:32;;;;;;;;;;;27.70;64.70;;;;;;1845807;75;20229;-80
2020/12/12 14:05:03;;;;;;;;;;;27.60;64.80;;;;;;1866323;75;20431;-80
2020/12/12 14:07:37;;;;;;;;;;;27.60;64.90;;;;;;1866796;76;20253;-79
2020/12/12 14:23:05;;;;;;;;;;;27.60;65.00;;;;;;1792739;79;20415;-79
2020/12/12 14:28:56;;;;;;;;;;;27.60;65.40;;;;;;1717666;82;20259;-79
2020/12/12 14:31:26;;;;;;;;;;;27.60;65.80;;;;;;1725827;82;20515;-80
2020/12/12 14:33:56;;;;;;;;;;;27.50;65.60;;;;;;1734039;82;20463;-80
2020/12/12 14:36:27;;;;;;;;;;;27.50;65.60;;;;;;1721859;82;20657;-79
2020/12/12 14:39:19;;;;;;;;;;;27.50;65.70;;;;;;1718830;83;20322;-79
2020/12/12 14:41:51;;;;;;;;;;;27.50;65.70;;;;;;1728968;82;20232;-80
2020/12/12 14:44:20;;;;;;;;;;;27.50;65.50;;;;;;1719905;82;20311;-81
2020/12/12 14:46:51;;;;;;;;;;;27.50;65.70;;;;;;1726065;82;20243;-80
2020/12/12 14:49:22;;;;;;;;;;;27.50;65.70;;;;;;1718575;83;20279;-81
2020/12/12 14:51:53;;;;;;;;;;;27.50;65.80;;;;;;1718818;83;20259;-79
2020/12/12 14:54:28;;;;;;;;;;;27.50;65.80;;;;;;1715101;82;20835;-79
2020/12/12 14:56:57;;;;;;;;;;;27.50;65.90;;;;;;1709929;82;20273;-80
2020/12/12 14:59:30;;;;;;;;;;;27.50;66.00;;;;;;1731347;79;20248;-80
2020/12/12 15:02:00;;;;;;;;;;;27.40;66.00;;;;;;1780698;79;20592;-80
2020/12/12 15:04:30;;;;;;;;;;;27.50;65.90;;;;;;1796911;78;20376;-80
2020/12/12 15:07:01;;;;;;;;;;;27.40;65.80;;;;;;1853342;74;20696;-80
2020/12/12 15:09:43;;;;;;;;;;;27.40;65.90;;;;;;1866243;74;20211;-81
2020/12/12 15:15:08;;;;;;;;;;;27.40;65.90;;;;;;1867934;75;20465;-80
2020/12/12 15:17:41;;;;;;;;;;;27.40;66.00;;;;;;1852346;75;20276;-81
2020/12/12 15:20:18;;;;;;;;;;;27.40;65.70;;;;;;1863232;75;20172;-80
2020/12/12 15:22:51;;;;;;;;;;;27.30;65.80;;;;;;1873641;75;20459;-80